createdAt,value
2022-10-12T00:01:00.466Z,102550.78
2022-10-12T00:06:23.059Z,102549.25
2022-10-12T00:11:27.769Z,102540.44
2022-10-12T00:16:31.415Z,102539.81
2022-10-12T00:21:33.025Z,102537.84
2022-10-12T00:26:34.484Z,102532.28
2022-10-12T00:31:35.943Z,102530.34
2022-10-12T00:36:37.459Z,102532.94
2022-10-12T00:41:42.476Z,102531.63
2022-10-12T00:46:45.817Z,102536.72
2022-10-12T00:51:55.460Z,102542.94
2022-10-12T00:56:58.186Z,102537.25
2022-10-12T01:02:00.090Z,102532.91
2022-10-12T01:07:01.813Z,102540.97
2022-10-12T01:12:05.499Z,102536.50
2022-10-12T01:17:06.908Z,102537.38
2022-10-12T01:22:13.068Z,102521.06
2022-10-12T01:27:36.195Z,102534.97
2022-10-12T01:32:57.466Z,102524.72
2022-10-12T01:38:22.298Z,102525.50
2022-10-12T01:43:23.794Z,102508.91
2022-10-12T01:48:26.211Z,102516.13
2022-10-12T01:53:42.904Z,102509.69
2022-10-12T01:58:58.243Z,102502.38
2022-10-12T02:04:18.309Z,102506.09
2022-10-12T02:09:29.523Z,102498.69
2022-10-12T02:14:37.252Z,102499.47
2022-10-12T02:19:40.738Z,102490.31
2022-10-12T02:24:46.837Z,102488.31
2022-10-12T02:29:48.727Z,102483.75
2022-10-12T02:34:58.419Z,102472.88
2022-10-12T02:40:09.306Z,102459.25
2022-10-12T02:45:13.262Z,102455.66
2022-10-12T02:50:17.149Z,102457.66
2022-10-12T02:55:18.856Z,102450.56
2022-10-12T03:00:20.378Z,102444.25
2022-10-12T03:05:21.838Z,102443.41
2022-10-12T03:10:23.334Z,102431.78
2022-10-12T03:15:24.973Z,102434.59
2022-10-12T03:20:26.564Z,102440.38
2022-10-12T03:25:28.022Z,102428.13
2022-10-12T03:30:29.552Z,102433.56
2022-10-12T03:35:31.053Z,102428.56
2022-10-12T03:40:32.549Z,102436.22
2022-10-12T03:45:34.210Z,102437.53
2022-10-12T03:50:36.274Z,102424.50
2022-10-12T03:55:37.779Z,102420.19
2022-10-12T04:00:39.508Z,102426.69
2022-10-12T04:05:41.015Z,102434.31
2022-10-12T04:10:42.494Z,102427.63
2022-10-12T04:15:43.947Z,102434.25
2022-10-12T04:20:48.272Z,102424.69
2022-10-12T04:25:49.723Z,102431.31
2022-10-12T04:30:51.198Z,102425.25
2022-10-12T04:35:52.691Z,102429.03
2022-10-12T04:40:54.162Z,102426.56
2022-10-12T04:46:00.097Z,102424.72
2022-10-12T04:51:01.649Z,102431.00
2022-10-12T04:56:04.838Z,102427.31
2022-10-12T05:01:06.366Z,102419.28
2022-10-12T05:06:07.951Z,102413.50
2022-10-12T05:11:09.456Z,102411.53
2022-10-12T05:16:10.938Z,102407.09
2022-10-12T05:21:12.455Z,102402.84
2022-10-12T05:26:13.963Z,102405.69
2022-10-12T05:31:15.408Z,102404.03
2022-10-12T05:36:16.871Z,102407.53
2022-10-12T05:41:18.325Z,102399.59
2022-10-12T05:46:19.797Z,102403.09
2022-10-12T05:51:24.108Z,102395.81
2022-10-12T05:56:28.154Z,102402.63
2022-10-12T06:01:30.074Z,102400.44
2022-10-12T06:06:31.639Z,102399.25
2022-10-12T06:11:36.296Z,102396.25
2022-10-12T06:16:38.256Z,102399.81
2022-10-12T06:21:39.752Z,102395.63
2022-10-12T06:26:41.205Z,102389.13
2022-10-12T06:31:44.670Z,102386.56
2022-10-12T06:36:48.458Z,102389.94
2022-10-12T06:41:49.914Z,102393.19
2022-10-12T06:46:51.453Z,102387.47
2022-10-12T06:51:52.902Z,102401.09
2022-10-12T06:56:58.593Z,102387.25
2022-10-12T07:02:00.441Z,102383.19
2022-10-12T07:07:01.985Z,102384.34
2022-10-12T07:12:04.195Z,102373.50
2022-10-12T07:17:05.949Z,102370.56
2022-10-12T07:22:07.413Z,102389.09
2022-10-12T07:27:10.561Z,102386.00
2022-10-12T07:32:12.103Z,102382.56
2022-10-12T07:37:13.614Z,102378.97
2022-10-12T07:42:19.127Z,102377.13
2022-10-12T07:47:21.078Z,102383.13
2022-10-12T07:52:22.633Z,102377.72
2022-10-12T07:57:24.106Z,102388.94
2022-10-12T08:02:25.606Z,102397.16
2022-10-12T08:07:27.052Z,102394.56
2022-10-12T08:12:28.508Z,102401.09
2022-10-12T08:17:29.983Z,102405.38
2022-10-12T08:22:31.481Z,102399.84
2022-10-12T08:27:33.005Z,102403.94
2022-10-12T08:32:34.531Z,102407.41
2022-10-12T08:37:36.146Z,102403.06
2022-10-12T08:42:56.507Z,102401.66
2022-10-12T08:48:20.399Z,102404.84
2022-10-12T08:53:28.122Z,102407.00
2022-10-12T08:58:36.608Z,102409.91
2022-10-12T09:03:53.315Z,102401.78
2022-10-12T09:09:17.668Z,102404.81
2022-10-12T09:14:29.928Z,102402.94
2022-10-12T09:19:37.281Z,102406.19
2022-10-12T09:24:40.091Z,102398.75
2022-10-12T09:29:46.130Z,102401.75
2022-10-12T09:34:49.217Z,102397.38
2022-10-12T09:39:51.435Z,102383.91
2022-10-12T09:45:01.297Z,102399.34
2022-10-12T09:50:06.091Z,102398.25
2022-10-12T09:55:16.844Z,102389.97
2022-10-12T10:00:33.567Z,102394.53
2022-10-12T10:05:37.587Z,102381.63
2022-10-12T10:10:49.329Z,102369.06
2022-10-12T10:16:01.152Z,102363.88
2022-10-12T10:21:06.499Z,102367.03
2022-10-12T10:26:12.786Z,102368.88
2022-10-12T10:31:14.194Z,102358.78
2022-10-12T10:36:22.295Z,102353.94
2022-10-12T10:41:28.539Z,102345.28
2022-10-12T10:46:34.316Z,102336.91
2022-10-12T10:51:57.744Z,102333.44
2022-10-12T10:57:03.665Z,102323.56
2022-10-12T11:02:58.819Z,102323.00
2022-10-12T11:08:10.763Z,102317.28
2022-10-12T11:13:44.699Z,102312.09
2022-10-12T11:18:54.099Z,102276.25
2022-10-12T11:24:14.834Z,102268.97
2022-10-12T11:29:18.063Z,102272.78
2022-10-12T11:34:22.941Z,102257.97
2022-10-12T11:39:40.781Z,102255.88
2022-10-12T11:44:44.664Z,102253.53
2022-10-12T11:50:10.412Z,102256.66
2022-10-12T11:55:32.481Z,102250.91
2022-10-12T12:00:55.444Z,102241.50
2022-10-12T12:06:17.858Z,102249.38
2022-10-12T12:11:24.640Z,102229.03
2022-10-12T12:16:30.858Z,102238.00
2022-10-12T12:22:10.577Z,102237.81
2022-10-12T12:27:28.346Z,102226.06
2022-10-12T12:32:44.658Z,102219.28
2022-10-12T12:37:47.183Z,102210.34
2022-10-12T12:42:48.694Z,102215.00
2022-10-12T12:47:50.208Z,102215.00
2022-10-12T12:52:57.219Z,102219.78
2022-10-12T12:58:12.118Z,102229.03
2022-10-12T13:03:50.924Z,102226.53
2022-10-12T13:09:28.746Z,102215.63
2022-10-12T13:15:01.094Z,102206.28
2022-10-12T13:20:17.074Z,102198.41
2022-10-12T13:25:33.105Z,102204.34
2022-10-12T13:30:41.596Z,102200.91
2022-10-12T13:36:08.079Z,102188.53
2022-10-12T13:41:11.850Z,102189.44
2022-10-12T13:46:37.980Z,102180.97
2022-10-12T13:51:39.448Z,102174.16
2022-10-12T13:56:41.227Z,102151.78
2022-10-12T14:01:59.066Z,102159.06
2022-10-12T14:07:08.235Z,102147.94
2022-10-12T14:12:11.868Z,102140.44
2022-10-12T14:17:18.449Z,102133.66
2022-10-12T14:22:32.292Z,102127.19
2022-10-12T14:27:34.389Z,102114.97
2022-10-12T14:32:39.195Z,102103.75
2022-10-12T14:37:40.747Z,102106.50
2022-10-12T14:43:04.179Z,102112.41
2022-10-12T14:48:13.694Z,102105.22
2022-10-12T14:53:15.645Z,102101.25
2022-10-12T14:58:17.469Z,102097.78
2022-10-12T15:03:20.152Z,102090.03
2022-10-12T15:08:21.633Z,102073.31
2022-10-12T15:13:24.061Z,102074.22
2022-10-12T15:18:25.540Z,102071.47
2022-10-12T15:23:26.998Z,102085.00
2022-10-12T15:28:29.866Z,102084.31
2022-10-12T15:33:31.462Z,102079.44
2022-10-12T15:38:32.986Z,102061.69
2022-10-12T15:43:35.811Z,102048.28
2022-10-12T15:48:40.368Z,102050.41
2022-10-12T15:53:42.060Z,102067.66
2022-10-12T15:58:43.848Z,102072.28
2022-10-12T16:03:46.611Z,102073.25
2022-10-12T16:08:48.229Z,102057.78
2022-10-12T16:13:56.267Z,102061.31
2022-10-12T16:18:58.455Z,102063.66
2022-10-12T16:24:00.943Z,102051.53
2022-10-12T16:29:03.524Z,102041.34
2022-10-12T16:34:04.972Z,102040.50
2022-10-12T16:39:06.479Z,102049.84
2022-10-12T16:44:07.954Z,102048.84
2022-10-12T16:49:09.850Z,102040.22
2022-10-12T16:54:11.359Z,102040.84
2022-10-12T16:59:12.808Z,102044.03
2022-10-12T17:04:14.845Z,102034.25
2022-10-12T17:09:16.345Z,102064.88
2022-10-12T17:14:17.876Z,102061.59
2022-10-12T17:19:30.258Z,102062.47
2022-10-12T17:24:34.041Z,102052.50
2022-10-12T17:29:40.110Z,102044.59
2022-10-12T17:34:43.696Z,102042.19
2022-10-12T17:39:47.915Z,102042.75
2022-10-12T17:44:49.670Z,102042.19
2022-10-12T17:49:51.175Z,102052.72
2022-10-12T17:54:52.623Z,102032.59
2022-10-12T17:59:54.077Z,102034.34
2022-10-12T18:04:55.547Z,102035.06
2022-10-12T18:15:07.318Z,102020.72
2022-10-12T18:20:09.357Z,102029.38
2022-10-12T18:25:10.869Z,102033.41
2022-10-12T18:30:12.574Z,102026.22
2022-10-12T18:35:14.083Z,102030.25
2022-10-12T18:40:15.539Z,102024.63
2022-10-12T18:45:17.176Z,102021.03
2022-10-12T18:50:18.769Z,102016.56
2022-10-12T18:55:20.351Z,102019.75
2022-10-12T19:00:21.889Z,102025.03
2022-10-12T19:05:24.433Z,102018.72
2022-10-12T19:10:26.175Z,101998.03
2022-10-12T19:15:28.547Z,102010.66
2022-10-12T19:20:30.959Z,102017.13
2022-10-12T19:25:36.422Z,102002.28
2022-10-12T19:30:38.669Z,102000.41
2022-10-12T19:35:40.138Z,101993.38
2022-10-12T19:40:42.922Z,101988.91
2022-10-12T19:45:44.416Z,101983.75
2022-10-12T19:50:45.878Z,101975.16
2022-10-12T19:55:48.493Z,101984.22
2022-10-12T20:00:49.974Z,101980.91
2022-10-12T20:05:51.455Z,101977.34
2022-10-12T20:10:53.576Z,101977.06
2022-10-12T20:15:55.938Z,101968.13
2022-10-12T20:20:57.848Z,101968.72
2022-10-12T20:25:59.318Z,101958.63
2022-10-12T20:31:02.139Z,101932.16
2022-10-12T20:36:07.194Z,101934.88
2022-10-12T20:41:12.505Z,101930.75
2022-10-12T20:46:16.065Z,101937.78
2022-10-12T20:51:24.163Z,101952.75
2022-10-12T20:56:26.423Z,101949.59
2022-10-12T21:01:28.517Z,101943.41
2022-10-12T21:06:30.079Z,101941.38
2022-10-12T21:11:32.264Z,101924.72
2022-10-12T21:16:33.781Z,101927.44
2022-10-12T21:21:35.258Z,101919.81
2022-10-12T21:26:36.716Z,101913.75
2022-10-12T21:31:39.606Z,101919.31
2022-10-12T21:36:41.129Z,101913.72
2022-10-12T21:41:42.852Z,101907.38
2022-10-12T21:46:44.326Z,101902.63
2022-10-12T21:51:45.841Z,101902.19
2022-10-12T21:56:47.316Z,101903.59
2022-10-12T22:01:48.827Z,101897.97
2022-10-12T22:06:50.302Z,101898.56
2022-10-12T22:11:53.980Z,101901.69
2022-10-12T22:16:55.509Z,101901.09
2022-10-12T22:21:56.969Z,101907.81
2022-10-12T22:26:58.417Z,101899.50
2022-10-12T22:31:59.880Z,101902.34
2022-10-12T22:37:01.358Z,101906.44
2022-10-12T22:42:02.836Z,101904.56
2022-10-12T22:47:04.382Z,101894.75
2022-10-12T22:52:05.865Z,101890.31
2022-10-12T22:57:07.363Z,101887.16
2022-10-12T23:02:08.841Z,101886.88
2022-10-12T23:07:10.313Z,101886.00
2022-10-12T23:12:11.826Z,101878.50
2022-10-12T23:17:13.262Z,101869.28
2022-10-12T23:22:14.759Z,101865.69
2022-10-12T23:27:16.361Z,101858.34
2022-10-12T23:32:18.124Z,101856.47
2022-10-12T23:37:19.747Z,101853.75
2022-10-12T23:42:21.328Z,101843.66
2022-10-12T23:47:22.985Z,101830.72
2022-10-12T23:52:24.439Z,101828.84
2022-10-12T23:57:45.507Z,101828.69
